createdAt,value
2022-08-16T00:05:11.630Z,29.42
2022-08-16T00:07:41.133Z,29.36
2022-08-16T00:10:21.008Z,29.28
2022-08-16T00:12:50.021Z,29.25
2022-08-16T00:15:26.291Z,29.25
2022-08-16T00:18:18.457Z,29.23
2022-08-16T00:20:50.728Z,29.26
2022-08-16T00:23:24.429Z,29.27
2022-08-16T00:31:10.662Z,29.38
2022-08-16T00:33:39.366Z,29.42
2022-08-16T00:36:08.997Z,29.44
2022-08-16T00:38:41.263Z,29.45
2022-08-16T00:41:11.445Z,29.43
2022-08-16T00:43:42.462Z,29.43
2022-08-16T00:46:34.812Z,29.47
2022-08-16T00:54:21.575Z,29.38
2022-08-16T00:56:55.881Z,29.37
2022-08-16T00:59:30.389Z,29.33
2022-08-16T01:02:30.779Z,29.25
2022-08-16T01:05:09.608Z,29.14
2022-08-16T01:07:50.420Z,29.10
2022-08-16T01:15:00.960Z,29.04
2022-08-16T01:17:36.644Z,29.03
2022-08-16T01:20:23.387Z,29.04
2022-08-16T01:23:19.524Z,29.06
2022-08-16T01:26:00.304Z,29.07
2022-08-16T01:28:45.361Z,29.04
2022-08-16T01:37:08.190Z,29.06
2022-08-16T01:39:38.155Z,29.05
2022-08-16T01:42:12.211Z,29.05
2022-08-16T01:44:41.940Z,29.04
2022-08-16T01:47:11.694Z,28.98
2022-08-16T01:50:43.441Z,28.96
2022-08-16T01:52:34.447Z,28.91
2022-08-16T02:00:29.852Z,28.93
2022-08-16T02:02:59.814Z,28.93
2022-08-16T02:05:30.657Z,28.92
2022-08-16T02:08:03.214Z,28.93
2022-08-16T02:10:33.933Z,28.90
2022-08-16T02:13:07.742Z,28.89
2022-08-16T02:15:42.294Z,28.84
2022-08-16T02:22:35.967Z,28.81
2022-08-16T02:25:14.694Z,28.82
2022-08-16T02:27:51.005Z,28.80
2022-08-16T02:30:36.684Z,28.76
2022-08-16T02:33:11.813Z,28.72
2022-08-16T02:35:54.527Z,28.73
2022-08-16T02:38:31.618Z,28.76
2022-08-16T02:46:08.163Z,28.81
2022-08-16T02:48:39.772Z,28.83
2022-08-16T02:51:19.570Z,28.81
2022-08-16T02:53:52.161Z,28.78
2022-08-16T02:56:22.401Z,28.76
2022-08-16T02:58:52.678Z,28.72
2022-08-16T03:08:52.421Z,28.71
2022-08-16T03:11:21.766Z,28.71
2022-08-16T03:13:56.711Z,28.73
2022-08-16T03:16:38.491Z,28.73
2022-08-16T03:19:11.302Z,28.72
2022-08-16T03:21:39.566Z,28.70
2022-08-16T03:24:27.586Z,28.67
2022-08-16T03:32:09.640Z,28.65
2022-08-16T03:34:41.593Z,28.65
2022-08-16T03:37:19.734Z,28.63
2022-08-16T03:39:56.608Z,28.62
2022-08-16T03:42:30.685Z,28.61
2022-08-16T03:45:03.754Z,28.60
2022-08-16T03:47:34.780Z,28.58
2022-08-16T03:52:49.409Z,28.56
2022-08-16T03:55:19.743Z,28.54
2022-08-16T03:57:53.836Z,28.48
2022-08-16T04:00:35.755Z,28.47
2022-08-16T04:03:14.192Z,28.46
2022-08-16T04:05:51.034Z,28.48
2022-08-16T04:08:24.670Z,28.42
2022-08-16T04:14:46.686Z,28.37
2022-08-16T04:17:18.989Z,28.32
2022-08-16T04:19:47.392Z,28.32
2022-08-16T04:22:19.566Z,28.34
2022-08-16T04:24:55.233Z,28.34
2022-08-16T04:27:31.732Z,28.35
2022-08-16T04:30:03.270Z,28.35
2022-08-16T04:35:23.970Z,28.31
2022-08-16T04:37:53.788Z,28.29
2022-08-16T04:40:30.262Z,28.29
2022-08-16T04:43:02.512Z,28.28
2022-08-16T04:45:35.864Z,28.26
2022-08-16T04:48:12.235Z,28.25
2022-08-16T04:51:00.070Z,28.22
2022-08-16T04:58:49.066Z,28.20
2022-08-16T05:01:19.607Z,28.20
2022-08-16T05:04:00.249Z,28.16
2022-08-16T05:06:45.095Z,28.15
2022-08-16T05:09:23.851Z,28.11
2022-08-16T05:11:57.505Z,28.09
2022-08-16T05:21:12.563Z,28.01
2022-08-16T05:23:55.501Z,28.00
2022-08-16T05:26:32.303Z,27.95
2022-08-16T05:29:03.814Z,27.91
2022-08-16T05:31:34.971Z,27.90
2022-08-16T05:34:04.837Z,27.88
2022-08-16T05:36:36.967Z,27.87
2022-08-16T05:47:00.832Z,27.87
2022-08-16T05:49:39.188Z,27.86
2022-08-16T05:52:13.488Z,27.86
2022-08-16T05:54:47.938Z,27.87
2022-08-16T05:57:33.817Z,27.86
2022-08-16T06:00:09.148Z,27.86
2022-08-16T06:02:41.696Z,27.86
2022-08-16T06:10:32.414Z,27.84
2022-08-16T06:13:05.175Z,27.83
2022-08-16T06:15:34.408Z,27.83
2022-08-16T06:18:04.390Z,27.83
2022-08-16T06:20:35.506Z,27.83
2022-08-16T06:23:32.166Z,27.80
2022-08-16T06:31:25.871Z,27.75
2022-08-16T06:34:02.027Z,27.75
2022-08-16T06:36:51.172Z,27.71
2022-08-16T06:39:29.649Z,27.70
2022-08-16T06:42:01.275Z,27.69
2022-08-16T06:44:48.951Z,27.66
2022-08-16T06:52:59.816Z,27.61
2022-08-16T06:55:34.444Z,27.60
2022-08-16T06:58:22.148Z,27.60
2022-08-16T07:01:03.968Z,27.56
2022-08-16T07:03:55.314Z,27.52
2022-08-16T07:06:31.911Z,27.49
2022-08-16T07:09:09.449Z,27.48
2022-08-16T07:16:49.780Z,27.48
2022-08-16T07:19:20.222Z,27.46
2022-08-16T07:22:00.063Z,27.45
2022-08-16T07:24:31.125Z,27.47
2022-08-16T07:27:08.357Z,27.47
2022-08-16T07:29:40.179Z,27.48
2022-08-16T07:32:10.618Z,27.49
2022-08-16T07:42:08.834Z,27.38
2022-08-16T07:44:50.388Z,27.36
2022-08-16T07:47:24.662Z,27.37
2022-08-16T07:50:05.516Z,27.36
2022-08-16T07:52:49.095Z,27.35
2022-08-16T07:55:22.592Z,27.34
2022-08-16T07:58:01.142Z,27.32
2022-08-16T08:05:40.519Z,27.25
2022-08-16T08:08:49.749Z,27.24
2022-08-16T08:11:02.029Z,27.22
2022-08-16T08:13:42.314Z,27.22
2022-08-16T08:16:18.247Z,27.22
2022-08-16T08:18:56.247Z,27.23
2022-08-16T08:24:52.107Z,27.17
2022-08-16T08:27:23.122Z,27.13
2022-08-16T08:30:50.166Z,27.15
2022-08-16T08:32:49.068Z,27.15
2022-08-16T08:35:29.349Z,27.16
2022-08-16T08:38:00.896Z,27.15
2022-08-16T08:40:31.288Z,27.13
2022-08-16T08:46:21.526Z,27.06
2022-08-16T08:48:58.351Z,27.07
2022-08-16T08:51:31.953Z,27.06
2022-08-16T08:54:20.714Z,27.04
2022-08-16T08:56:55.047Z,27.03
2022-08-16T08:59:42.658Z,27.02
2022-08-16T09:02:19.527Z,27.03
2022-08-16T09:10:06.739Z,27.01
2022-08-16T09:12:50.391Z,26.99
2022-08-16T09:15:33.041Z,26.97
2022-08-16T09:18:27.068Z,26.97
2022-08-16T09:20:59.875Z,26.96
2022-08-16T09:23:36.398Z,26.96
2022-08-16T09:31:20.767Z,26.90
2022-08-16T09:33:52.129Z,26.90
2022-08-16T09:36:32.847Z,26.88
2022-08-16T09:39:03.793Z,26.87
2022-08-16T09:41:31.649Z,26.87
2022-08-16T09:44:02.441Z,26.86
2022-08-16T09:49:21.206Z,26.85
2022-08-16T09:51:53.359Z,26.86
2022-08-16T09:54:22.889Z,26.85
2022-08-16T09:56:53.109Z,26.85
2022-08-16T09:59:25.153Z,26.85
2022-08-16T10:01:54.526Z,26.84
2022-08-16T10:04:31.648Z,26.82
2022-08-16T10:11:50.071Z,26.75
2022-08-16T10:14:24.361Z,26.77
2022-08-16T10:16:59.667Z,26.76
2022-08-16T10:19:33.609Z,26.75
2022-08-16T10:22:05.269Z,26.74
2022-08-16T10:24:33.896Z,26.73
2022-08-16T10:32:10.257Z,26.72
2022-08-16T10:34:39.855Z,26.71
2022-08-16T10:37:09.216Z,26.71
2022-08-16T10:39:41.406Z,26.73
2022-08-16T10:42:13.184Z,26.71
2022-08-16T10:44:42.475Z,26.70
2022-08-16T10:47:11.576Z,26.67
2022-08-16T10:49:40.516Z,26.68
2022-08-16T10:57:20.100Z,26.69
2022-08-16T10:59:58.264Z,26.68
2022-08-16T11:02:58.101Z,26.71
2022-08-16T11:05:19.495Z,26.71
2022-08-16T11:07:53.591Z,26.71
2022-08-16T11:18:48.936Z,26.69
2022-08-16T11:20:42.908Z,26.68
2022-08-16T11:23:20.206Z,26.68
2022-08-16T11:26:22.698Z,26.70
2022-08-16T11:31:29.641Z,26.79
2022-08-16T11:34:00.596Z,26.83
2022-08-16T11:40:32.229Z,26.99
2022-08-16T11:43:04.073Z,27.07
2022-08-16T11:45:34.866Z,27.16
2022-08-16T11:48:04.493Z,27.26
2022-08-16T11:50:33.525Z,27.37
2022-08-16T11:53:03.605Z,27.52
2022-08-16T11:58:21.433Z,27.84
2022-08-16T12:00:53.910Z,28.03
2022-08-16T12:03:34.561Z,28.21
2022-08-16T12:06:10.911Z,28.40
2022-08-16T12:08:44.804Z,28.55
2022-08-16T12:11:14.627Z,28.67
2022-08-16T12:13:46.733Z,28.77
2022-08-16T12:24:10.898Z,29.39
2022-08-16T12:26:41.390Z,29.51
2022-08-16T12:29:10.164Z,29.64
2022-08-16T12:32:01.555Z,29.78
2022-08-16T12:34:30.166Z,29.90
2022-08-16T12:37:04.142Z,30.11
2022-08-16T12:44:41.896Z,30.49
2022-08-16T12:47:29.425Z,30.58
2022-08-16T12:49:59.579Z,30.70
2022-08-16T12:52:33.020Z,30.85
2022-08-16T12:55:03.058Z,31.00
2022-08-16T12:57:36.747Z,31.17
2022-08-16T13:00:13.217Z,31.27
2022-08-16T13:08:04.819Z,31.71
2022-08-16T13:10:37.654Z,31.85
2022-08-16T13:13:09.482Z,31.98
2022-08-16T13:15:55.684Z,32.12
2022-08-16T13:18:34.650Z,32.27
2022-08-16T13:21:10.659Z,32.35
2022-08-16T13:23:43.615Z,32.40
2022-08-16T13:26:17.311Z,32.51
2022-08-16T13:33:50.504Z,33.03
2022-08-16T13:36:38.885Z,33.12
2022-08-16T13:39:11.041Z,33.26
2022-08-16T13:41:42.858Z,33.38
2022-08-16T13:44:10.810Z,33.50
2022-08-16T13:46:44.068Z,33.64
2022-08-16T13:49:11.524Z,33.88
2022-08-16T13:58:35.496Z,34.29
2022-08-16T14:00:52.864Z,34.29
2022-08-16T14:03:23.977Z,34.01
2022-08-16T14:05:52.730Z,33.88
2022-08-16T14:08:25.207Z,34.02
2022-08-16T14:10:56.081Z,34.18
2022-08-16T14:13:24.015Z,34.47
2022-08-16T14:21:00.390Z,35.09
2022-08-16T14:23:27.885Z,35.27
2022-08-16T14:25:57.277Z,35.34
2022-08-16T14:28:26.843Z,35.40
2022-08-16T14:30:54.586Z,35.56
2022-08-16T14:33:22.223Z,35.57
2022-08-16T14:35:50.438Z,35.67
2022-08-16T14:41:41.008Z,35.52
2022-08-16T14:44:08.705Z,35.25
2022-08-16T14:46:36.732Z,35.37
2022-08-16T14:49:09.320Z,35.51
2022-08-16T14:51:39.345Z,35.37
2022-08-16T14:54:06.770Z,35.27
2022-08-16T14:56:42.746Z,35.62
2022-08-16T15:06:50.933Z,36.67
2022-08-16T15:09:21.154Z,36.75
2022-08-16T15:11:51.981Z,36.82
2022-08-16T15:14:23.926Z,36.91
2022-08-16T15:16:51.892Z,37.05
2022-08-16T15:19:22.513Z,37.25
2022-08-16T15:21:54.057Z,37.13
2022-08-16T15:27:01.049Z,36.77
2022-08-16T15:29:30.255Z,37.06
2022-08-16T15:32:01.246Z,37.06
2022-08-16T15:34:30.989Z,36.78
2022-08-16T15:37:01.141Z,36.53
2022-08-16T15:39:39.278Z,36.35
2022-08-16T15:42:27.322Z,36.50
2022-08-16T15:50:06.091Z,36.33
2022-08-16T15:52:36.289Z,36.22
2022-08-16T15:55:24.061Z,36.57
2022-08-16T15:58:00.685Z,36.75
2022-08-16T16:00:51.703Z,36.98
2022-08-16T16:03:23.532Z,37.27
2022-08-16T16:05:53.619Z,37.60
2022-08-16T16:13:35.277Z,37.82
2022-08-16T16:16:04.583Z,37.56
2022-08-16T16:18:42.019Z,37.18
2022-08-16T16:21:21.874Z,37.07
2022-08-16T16:23:53.745Z,37.23
2022-08-16T16:26:29.774Z,37.52
2022-08-16T16:29:07.648Z,37.39
2022-08-16T16:36:48.627Z,37.80
2022-08-16T16:39:19.685Z,38.19
2022-08-16T16:41:50.801Z,38.49
2022-08-16T16:44:31.754Z,38.73
2022-08-16T16:47:01.448Z,38.92
2022-08-16T16:49:32.928Z,39.16
2022-08-16T16:52:07.126Z,39.08
2022-08-16T16:59:42.940Z,38.97
2022-08-16T17:02:39.411Z,39.19
2022-08-16T17:05:03.584Z,39.58
2022-08-16T17:07:36.491Z,39.76
2022-08-16T17:10:05.507Z,39.87
2022-08-16T17:12:46.859Z,39.80
2022-08-16T17:15:20.358Z,39.92
2022-08-16T17:22:13.931Z,40.11
2022-08-16T17:24:50.818Z,40.49
2022-08-16T17:27:32.622Z,40.59
2022-08-16T17:30:15.673Z,40.78
2022-08-16T17:32:54.384Z,40.81
2022-08-16T17:35:34.131Z,40.96
2022-08-16T17:38:05.917Z,41.11
2022-08-16T17:45:43.249Z,40.90
2022-08-16T17:48:11.341Z,40.92
2022-08-16T17:50:42.008Z,40.74
2022-08-16T17:53:12.830Z,40.74
2022-08-16T17:55:45.776Z,40.91
2022-08-16T17:58:23.675Z,41.16
2022-08-16T18:01:03.735Z,41.11
2022-08-16T18:08:24.005Z,41.52
2022-08-16T18:10:52.271Z,41.63
2022-08-16T18:13:21.120Z,41.70
2022-08-16T18:15:51.522Z,41.76
2022-08-16T18:18:21.286Z,41.58
2022-08-16T18:21:10.332Z,40.86
2022-08-16T18:23:40.396Z,40.05
2022-08-16T18:26:10.535Z,39.43
2022-08-16T18:33:45.332Z,39.20
2022-08-16T18:36:20.021Z,39.11
2022-08-16T18:38:49.714Z,38.89
2022-08-16T18:41:19.930Z,38.92
2022-08-16T18:44:22.549Z,38.97
2022-08-16T18:46:44.621Z,38.59
2022-08-16T18:49:13.209Z,38.36
2022-08-16T18:56:55.896Z,37.97
2022-08-16T18:59:30.772Z,37.52
2022-08-16T19:02:05.425Z,37.24
2022-08-16T19:04:47.427Z,37.07
2022-08-16T19:07:30.572Z,36.94
2022-08-16T19:10:04.704Z,37.10
2022-08-16T19:17:35.714Z,37.65
2022-08-16T19:20:10.023Z,37.43
2022-08-16T19:25:46.990Z,37.27
2022-08-16T19:28:50.169Z,37.00
2022-08-16T19:31:16.657Z,36.87
2022-08-16T19:33:47.272Z,36.73
2022-08-16T19:44:01.238Z,35.93
2022-08-16T19:46:30.588Z,35.79
2022-08-16T19:48:59.963Z,35.55
2022-08-16T19:51:30.263Z,35.33
2022-08-16T19:53:58.029Z,35.00
2022-08-16T19:56:27.102Z,34.60
2022-08-16T19:59:18.068Z,34.16
2022-08-16T20:09:33.073Z,33.04
2022-08-16T20:12:10.920Z,32.96
2022-08-16T20:14:41.066Z,32.68
2022-08-16T20:17:10.937Z,32.39
2022-08-16T20:19:41.053Z,32.17
2022-08-16T20:22:52.568Z,32.12
2022-08-16T20:29:01.649Z,31.96
2022-08-16T20:31:30.967Z,31.77
2022-08-16T20:34:00.431Z,31.42
2022-08-16T20:36:29.933Z,31.10
2022-08-16T20:39:00.786Z,30.76
2022-08-16T20:41:30.086Z,30.46
2022-08-16T20:44:03.257Z,30.31
2022-08-16T20:50:43.727Z,30.29
2022-08-16T20:53:11.753Z,30.34
2022-08-16T20:55:44.630Z,30.40
2022-08-16T20:58:12.130Z,30.49
2022-08-16T21:00:41.544Z,30.57
2022-08-16T21:03:14.702Z,30.65
2022-08-16T21:05:45.149Z,30.66
2022-08-16T21:13:12.497Z,30.58
2022-08-16T21:15:41.973Z,30.49
2022-08-16T21:18:15.431Z,30.39
2022-08-16T21:20:42.966Z,30.36
2022-08-16T21:23:11.826Z,30.40
2022-08-16T21:25:48.482Z,30.37
2022-08-16T21:28:41.183Z,30.34
2022-08-16T21:38:01.020Z,30.57
2022-08-16T21:40:46.831Z,30.63
2022-08-16T21:43:22.810Z,30.55
2022-08-16T21:45:55.750Z,30.45
2022-08-16T21:48:34.971Z,30.44
2022-08-16T21:51:14.160Z,30.46
2022-08-16T21:56:22.045Z,30.39
2022-08-16T21:58:52.731Z,30.42
2022-08-16T22:01:24.905Z,30.40
2022-08-16T22:04:03.506Z,30.38
2022-08-16T22:06:42.917Z,30.41
2022-08-16T22:09:15.085Z,30.46
2022-08-16T22:11:44.144Z,30.55
2022-08-16T22:16:52.374Z,30.52
2022-08-16T22:19:21.728Z,30.54
2022-08-16T22:21:49.258Z,30.47
2022-08-16T22:24:16.690Z,30.36
2022-08-16T22:26:44.091Z,30.41
2022-08-16T22:29:14.468Z,30.47
2022-08-16T22:31:41.909Z,30.47
2022-08-16T22:38:56.194Z,30.51
2022-08-16T22:41:08.969Z,30.50
2022-08-16T22:43:36.388Z,30.53
2022-08-16T22:46:04.672Z,30.55
2022-08-16T22:48:33.082Z,30.57
2022-08-16T22:51:07.580Z,30.54
2022-08-16T22:53:37.766Z,30.51
2022-08-16T23:02:27.833Z,30.62
2022-08-16T23:04:56.989Z,30.60
2022-08-16T23:07:25.285Z,30.59
2022-08-16T23:09:53.595Z,30.63
2022-08-16T23:12:29.273Z,30.63
2022-08-16T23:15:04.488Z,30.60
2022-08-16T23:17:37.015Z,30.59
2022-08-16T23:23:25.385Z,30.63
2022-08-16T23:25:55.324Z,30.59
2022-08-16T23:28:25.731Z,30.58
2022-08-16T23:30:54.935Z,30.60
2022-08-16T23:33:23.506Z,30.57
2022-08-16T23:35:55.033Z,30.56
2022-08-16T23:41:05.658Z,30.53
2022-08-16T23:43:44.063Z,30.50
2022-08-16T23:46:16.957Z,30.50
2022-08-16T23:49:56.135Z,30.49
2022-08-16T23:51:33.026Z,30.40
2022-08-16T23:54:02.248Z,30.32
2022-08-16T23:56:38.956Z,30.28
